sensor_id;sensor_type;location;lat;lon;timestamp;pressure;altitude;pressure_sealevel;temperature;humidity
69624;BME280;56843;52.020;5.670;2023-06-19T00:01:22;100599.63;;;23.74;43.70
69624;BME280;56843;52.020;5.670;2023-06-19T00:02:52;100612.47;;;23.73;43.90
69624;BME280;56843;52.020;5.670;2023-06-19T00:04:23;100601.56;;;23.73;43.96
69624;BME280;56843;52.020;5.670;2023-06-19T00:05:54;100613.25;;;23.74;44.05
69624;BME280;56843;52.020;5.670;2023-06-19T00:07:24;100609.75;;;23.73;43.92
69624;BME280;56843;52.020;5.670;2023-06-19T00:08:54;100604.31;;;23.73;44.13
69624;BME280;56843;52.020;5.670;2023-06-19T00:10:25;100602.34;;;23.74;44.20
69624;BME280;56843;52.020;5.670;2023-06-19T00:11:55;100605.84;;;23.74;44.28
69624;BME280;56843;52.020;5.670;2023-06-19T00:13:26;100614.78;;;23.75;44.40
69624;BME280;56843;52.020;5.670;2023-06-19T00:14:56;100610.09;;;23.75;44.52
69624;BME280;56843;52.020;5.670;2023-06-19T00:16:27;100607.38;;;23.75;44.55
69624;BME280;56843;52.020;5.670;2023-06-19T00:17:57;100605.84;;;23.74;44.60
69624;BME280;56843;52.020;5.670;2023-06-19T00:19:28;100612.06;;;23.75;44.69
69624;BME280;56843;52.020;5.670;2023-06-19T00:21:00;100613.59;;;23.76;44.67
69624;BME280;56843;52.020;5.670;2023-06-19T00:22:30;100612.06;;;23.75;44.82
69624;BME280;56843;52.020;5.670;2023-06-19T00:24:01;100615.13;;;23.77;44.94
69624;BME280;56843;52.020;5.670;2023-06-19T00:25:32;100619.41;;;23.78;45.03
69624;BME280;56843;52.020;5.670;2023-06-19T00:27:02;100610.88;;;23.76;45.07
69624;BME280;56843;52.020;5.670;2023-06-19T00:28:33;100619.84;;;23.76;45.27
69624;BME280;56843;52.020;5.670;2023-06-19T00:30:05;100619.41;;;23.78;45.34
69624;BME280;56843;52.020;5.670;2023-06-19T00:31:36;100631.09;;;23.78;45.17
69624;BME280;56843;52.020;5.670;2023-06-19T00:33:07;100631.09;;;23.78;45.47
69624;BME280;56843;52.020;5.670;2023-06-19T00:34:38;100631.09;;;23.78;45.68
69624;BME280;56843;52.020;5.670;2023-06-19T00:36:12;100629.16;;;23.79;45.62
69624;BME280;56843;52.020;5.670;2023-06-19T00:37:43;100634.59;;;23.79;45.54
69624;BME280;56843;52.020;5.670;2023-06-19T00:39:14;100638.50;;;23.78;45.65
69624;BME280;56843;52.020;5.670;2023-06-19T00:40:45;100642.00;;;23.78;46.01
69624;BME280;56843;52.020;5.670;2023-06-19T00:42:16;100646.69;;;23.78;45.91
69624;BME280;56843;52.020;5.670;2023-06-19T00:43:48;100643.97;;;23.78;45.82
69624;BME280;56843;52.020;5.670;2023-06-19T00:45:19;100640.44;;;23.77;45.70
69624;BME280;56843;52.020;5.670;2023-06-19T00:46:51;100647.47;;;23.78;46.08
69624;BME280;56843;52.020;5.670;2023-06-19T00:48:29;100655.66;;;23.78;45.94
69624;BME280;56843;52.020;5.670;2023-06-19T00:50:00;100659.53;;;23.77;46.20
69624;BME280;56843;52.020;5.670;2023-06-19T00:51:31;100663.03;;;23.78;46.15
69624;BME280;56843;52.020;5.670;2023-06-19T00:53:02;100664.22;;;23.77;46.31
69624;BME280;56843;52.020;5.670;2023-06-19T00:54:33;100658.03;;;23.76;46.09
69624;BME280;56843;52.020;5.670;2023-06-19T00:56:05;100659.53;;;23.77;46.48
69624;BME280;56843;52.020;5.670;2023-06-19T00:57:36;100668.50;;;23.78;46.22
69624;BME280;56843;52.020;5.670;2023-06-19T00:59:16;100657.16;;;23.79;46.32
69624;BME280;56843;52.020;5.670;2023-06-19T01:02:27;100654.50;;;23.76;46.50
69624;BME280;56843;52.020;5.670;2023-06-19T01:03:58;100663.81;;;23.78;46.51
69624;BME280;56843;52.020;5.670;2023-06-19T01:05:29;100657.59;;;23.78;46.27
69624;BME280;56843;52.020;5.670;2023-06-19T01:07:08;100661.44;;;23.80;46.66
69624;BME280;56843;52.020;5.670;2023-06-19T01:10:50;100677.84;;;23.77;46.34
69624;BME280;56843;52.020;5.670;2023-06-19T01:12:26;100668.97;;;23.73;46.75
69624;BME280;56843;52.020;5.670;2023-06-19T01:14:00;100675.63;;;23.72;46.67
69624;BME280;56843;52.020;5.670;2023-06-19T01:15:35;100674.41;;;23.73;46.66
69624;BME280;56843;52.020;5.670;2023-06-19T01:17:05;100676.41;;;23.72;46.52
69624;BME280;56843;52.020;5.670;2023-06-19T01:18:36;100673.69;;;23.72;46.61
69624;BME280;56843;52.020;5.670;2023-06-19T01:20:07;100682.59;;;23.73;47.02
69624;BME280;56843;52.020;5.670;2023-06-19T01:21:42;100672.91;;;23.72;46.88
69624;BME280;56843;52.020;5.670;2023-06-19T01:23:13;100687.31;;;23.72;46.85
69624;BME280;56843;52.020;5.670;2023-06-19T01:24:43;100688.84;;;23.73;46.69
69624;BME280;56843;52.020;5.670;2023-06-19T01:26:16;100671.69;;;23.73;46.90
69624;BME280;56843;52.020;5.670;2023-06-19T01:27:46;100678.34;;;23.72;46.89
69624;BME280;56843;52.020;5.670;2023-06-19T01:29:17;100679.53;;;23.71;47.03
69624;BME280;56843;52.020;5.670;2023-06-19T01:30:49;100688.47;;;23.71;46.92
69624;BME280;56843;52.020;5.670;2023-06-19T01:32:27;100677.16;;;23.73;46.80
69624;BME280;56843;52.020;5.670;2023-06-19T01:34:01;100684.56;;;23.72;47.23
69624;BME280;56843;52.020;5.670;2023-06-19T01:35:35;100671.69;;;23.73;46.92
69624;BME280;56843;52.020;5.670;2023-06-19T01:37:07;100674.03;;;23.74;46.79
69624;BME280;56843;52.020;5.670;2023-06-19T01:38:40;100675.91;;;23.77;46.91
69624;BME280;56843;52.020;5.670;2023-06-19T01:40:14;100684.88;;;23.78;47.04
69624;BME280;56843;52.020;5.670;2023-06-19T01:41:46;100689.91;;;23.79;46.89
69624;BME280;56843;52.020;5.670;2023-06-19T01:43:18;100682.50;;;23.80;46.95
69624;BME280;56843;52.020;5.670;2023-06-19T01:44:49;100682.50;;;23.80;47.17
69624;BME280;56843;52.020;5.670;2023-06-19T01:46:21;100688.72;;;23.80;47.30
69624;BME280;56843;52.020;5.670;2023-06-19T01:47:52;100683.28;;;23.80;47.23
69624;BME280;56843;52.020;5.670;2023-06-19T01:49:23;100690.66;;;23.80;46.98
69624;BME280;56843;52.020;5.670;2023-06-19T01:50:53;100694.59;;;23.79;47.11
69624;BME280;56843;52.020;5.670;2023-06-19T01:52:24;100702.00;;;23.78;47.27
69624;BME280;56843;52.020;5.670;2023-06-19T01:53:55;100696.94;;;23.77;47.26
69624;BME280;56843;52.020;5.670;2023-06-19T01:55:26;100704.03;;;23.74;47.27
69624;BME280;56843;52.020;5.670;2023-06-19T01:56:57;100695.06;;;23.74;47.48
69624;BME280;56843;52.020;5.670;2023-06-19T01:58:27;100706.41;;;23.72;47.57
69624;BME280;56843;52.020;5.670;2023-06-19T01:59:58;100702.88;;;23.72;47.65
69624;BME280;56843;52.020;5.670;2023-06-19T02:01:29;100718.13;;;23.69;47.66
69624;BME280;56843;52.020;5.670;2023-06-19T02:02:59;100704.13;;;23.67;47.67
69624;BME280;56843;52.020;5.670;2023-06-19T02:04:30;100711.19;;;23.65;47.70
69624;BME280;56843;52.020;5.670;2023-06-19T02:06:00;100706.91;;;23.64;47.73
69624;BME280;56843;52.020;5.670;2023-06-19T02:07:31;100712.00;;;23.62;47.87
69624;BME280;56843;52.020;5.670;2023-06-19T02:09:01;100717.09;;;23.60;48.11
69624;BME280;56843;52.020;5.670;2023-06-19T02:10:32;100720.25;;;23.58;48.00
69624;BME280;56843;52.020;5.670;2023-06-19T02:12:03;100711.69;;;23.56;48.02
69624;BME280;56843;52.020;5.670;2023-06-19T02:13:33;100715.25;;;23.53;48.21
69624;BME280;56843;52.020;5.670;2023-06-19T02:15:04;100719.16;;;23.52;48.16
69624;BME280;56843;52.020;5.670;2023-06-19T02:16:35;100717.59;;;23.51;48.30
69624;BME280;56843;52.020;5.670;2023-06-19T02:18:06;100717.59;;;23.51;48.52
69624;BME280;56843;52.020;5.670;2023-06-19T02:19:36;100719.56;;;23.51;48.35
69624;BME280;56843;52.020;5.670;2023-06-19T02:21:07;100711.81;;;23.49;48.28
69624;BME280;56843;52.020;5.670;2023-06-19T02:22:39;100721.16;;;23.48;48.52
69624;BME280;56843;52.020;5.670;2023-06-19T02:24:09;100718.06;;;23.46;48.86
69624;BME280;56843;52.020;5.670;2023-06-19T02:25:40;100717.72;;;23.44;48.54
69624;BME280;56843;52.020;5.670;2023-06-19T02:27:10;100721.28;;;23.41;48.64
69624;BME280;56843;52.020;5.670;2023-06-19T02:28:40;100726.72;;;23.41;49.06
69624;BME280;56843;52.020;5.670;2023-06-19T02:30:11;100723.25;;;23.37;48.99
69624;BME280;56843;52.020;5.670;2023-06-19T02:31:42;100723.25;;;23.37;49.35
69624;BME280;56843;52.020;5.670;2023-06-19T02:33:12;100725.63;;;23.35;49.49
69624;BME280;56843;52.020;5.670;2023-06-19T02:34:45;100730.72;;;23.33;49.71
69624;BME280;56843;52.020;5.670;2023-06-19T02:36:15;100732.31;;;23.30;49.75
69624;BME280;56843;52.020;5.670;2023-06-19T02:37:49;100725.75;;;23.28;49.74
69624;BME280;56843;52.020;5.670;2023-06-19T02:39:20;100726.91;;;23.27;49.93
69624;BME280;56843;52.020;5.670;2023-06-19T02:40:52;100726.56;;;23.25;49.47
69624;BME280;56843;52.020;5.670;2023-06-19T02:42:23;100726.16;;;23.23;50.11
69624;BME280;56843;52.020;5.670;2023-06-19T02:43:53;100735.94;;;23.20;50.16
69624;BME280;56843;52.020;5.670;2023-06-19T02:45:24;100721.53;;;23.20;49.45
69624;BME280;56843;52.020;5.670;2023-06-19T02:46:54;100733.25;;;23.17;50.05
69624;BME280;56843;52.020;5.670;2023-06-19T02:48:24;100735.56;;;23.18;50.06
69624;BME280;56843;52.020;5.670;2023-06-19T02:49:55;100731.69;;;23.16;50.41
69624;BME280;56843;52.020;5.670;2023-06-19T02:51:25;100737.56;;;23.14;50.38
69624;BME280;56843;52.020;5.670;2023-06-19T02:52:56;100731.75;;;23.12;50.25
69624;BME280;56843;52.020;5.670;2023-06-19T02:54:26;100732.94;;;23.11;50.33
69624;BME280;56843;52.020;5.670;2023-06-19T02:55:57;100741.88;;;23.12;50.29
69624;BME280;56843;52.020;5.670;2023-06-19T02:57:27;100736.06;;;23.10;50.73
69624;BME280;56843;52.020;5.670;2023-06-19T02:58:58;100746.19;;;23.09;50.54
69624;BME280;56843;52.020;5.670;2023-06-19T03:00:28;100739.97;;;23.09;50.61
69624;BME280;56843;52.020;5.670;2023-06-19T03:01:59;100746.59;;;23.08;50.82
69624;BME280;56843;52.020;5.670;2023-06-19T03:03:29;100743.09;;;23.07;50.82
69624;BME280;56843;52.020;5.670;2023-06-19T03:05:02;100741.56;;;23.06;51.34
69624;BME280;56843;52.020;5.670;2023-06-19T03:06:33;100739.25;;;23.05;51.04
69624;BME280;56843;52.020;5.670;2023-06-19T03:08:10;100745.09;;;23.03;51.01
69624;BME280;56843;52.020;5.670;2023-06-19T03:09:40;100744.31;;;23.03;51.42
69624;BME280;56843;52.020;5.670;2023-06-19T03:11:12;100740.47;;;23.00;51.47
69624;BME280;56843;52.020;5.670;2023-06-19T03:12:43;100743.19;;;23.00;51.56
69624;BME280;56843;52.020;5.670;2023-06-19T03:14:13;100751.78;;;22.99;51.79
69624;BME280;56843;52.020;5.670;2023-06-19T03:15:44;100744.00;;;22.97;51.37
69624;BME280;56843;52.020;5.670;2023-06-19T03:17:14;100738.97;;;22.96;51.64
69624;BME280;56843;52.020;5.670;2023-06-19T03:18:46;100740.16;;;22.95;51.65
69624;BME280;56843;52.020;5.670;2023-06-19T03:20:17;100745.22;;;22.93;51.75
69624;BME280;56843;52.020;5.670;2023-06-19T03:21:54;100743.69;;;22.92;51.72
69624;BME280;56843;52.020;5.670;2023-06-19T03:23:24;100745.22;;;22.93;51.70
69624;BME280;56843;52.020;5.670;2023-06-19T03:24:55;100750.66;;;22.93;51.98
69624;BME280;56843;52.020;5.670;2023-06-19T03:26:26;100758.84;;;22.93;51.94
69624;BME280;56843;52.020;5.670;2023-06-19T03:27:58;100758.47;;;22.91;51.71
69624;BME280;56843;52.020;5.670;2023-06-19T03:29:28;100756.53;;;22.91;52.11
69624;BME280;56843;52.020;5.670;2023-06-19T03:31:04;100757.31;;;22.92;52.12
69624;BME280;56843;52.020;5.670;2023-06-19T03:32:35;100749.13;;;22.92;52.11
69624;BME280;56843;52.020;5.670;2023-06-19T03:34:06;100753.03;;;22.91;52.32
69624;BME280;56843;52.020;5.670;2023-06-19T03:35:39;100753.81;;;22.91;52.24
69624;BME280;56843;52.020;5.670;2023-06-19T03:37:12;100752.66;;;22.89;52.33
69624;BME280;56843;52.020;5.670;2023-06-19T03:38:43;100756.94;;;22.90;52.21
69624;BME280;56843;52.020;5.670;2023-06-19T03:40:16;100752.28;;;22.90;52.17
69624;BME280;56843;52.020;5.670;2023-06-19T03:41:48;100757.34;;;22.88;52.42
69624;BME280;56843;52.020;5.670;2023-06-19T03:43:19;100754.63;;;22.88;52.58
69624;BME280;56843;52.020;5.670;2023-06-19T03:44:50;100754.25;;;22.86;52.59
69624;BME280;56843;52.020;5.670;2023-06-19T03:46:21;100754.63;;;22.88;52.54
69624;BME280;56843;52.020;5.670;2023-06-19T03:47:51;100763.16;;;22.90;52.46
69624;BME280;56843;52.020;5.670;2023-06-19T03:49:22;100761.66;;;22.86;52.38
69624;BME280;56843;52.020;5.670;2023-06-19T03:50:54;100763.19;;;22.87;52.67
69624;BME280;56843;52.020;5.670;2023-06-19T03:52:25;100760.47;;;22.87;52.63
69624;BME280;56843;52.020;5.670;2023-06-19T03:53:56;100764.75;;;22.88;52.80
69624;BME280;56843;52.020;5.670;2023-06-19T03:55:26;100769.41;;;22.87;52.63
69624;BME280;56843;52.020;5.670;2023-06-19T03:56:57;100774.88;;;22.87;52.56
69624;BME280;56843;52.020;5.670;2023-06-19T03:58:28;100769.41;;;22.87;52.90
69624;BME280;56843;52.020;5.670;2023-06-19T03:59:58;100774.88;;;22.87;52.91
69624;BME280;56843;52.020;5.670;2023-06-19T04:01:28;100769.84;;;22.86;52.76
69624;BME280;56843;52.020;5.670;2023-06-19T04:02:59;100773.72;;;22.85;52.86
69624;BME280;56843;52.020;5.670;2023-06-19T04:04:29;100772.56;;;22.86;52.96
69624;BME280;56843;52.020;5.670;2023-06-19T04:06:00;100781.09;;;22.84;52.83
69624;BME280;56843;52.020;5.670;2023-06-19T04:07:30;100780.34;;;22.84;52.61
69624;BME280;56843;52.020;5.670;2023-06-19T04:09:02;100784.59;;;22.85;52.88
69624;BME280;56843;52.020;5.670;2023-06-19T04:10:32;100780.34;;;22.84;52.96
69624;BME280;56843;52.020;5.670;2023-06-19T04:12:04;100783.09;;;22.84;53.06
69624;BME280;56843;52.020;5.670;2023-06-19T04:13:36;100786.97;;;22.83;53.26
69624;BME280;56843;52.020;5.670;2023-06-19T04:15:07;100789.69;;;22.83;53.06
69624;BME280;56843;52.020;5.670;2023-06-19T04:16:38;100790.84;;;22.82;53.23
69624;BME280;56843;52.020;5.670;2023-06-19T04:18:08;100795.56;;;22.81;53.27
69624;BME280;56843;52.020;5.670;2023-06-19T04:19:41;100799.03;;;22.82;53.08
69624;BME280;56843;52.020;5.670;2023-06-19T04:21:12;100790.84;;;22.82;53.14
69624;BME280;56843;52.020;5.670;2023-06-19T04:22:43;100801.00;;;22.81;53.23
69624;BME280;56843;52.020;5.670;2023-06-19T04:24:13;100794.78;;;22.81;53.58
69624;BME280;56843;52.020;5.670;2023-06-19T04:25:43;100797.91;;;22.79;53.31
69624;BME280;56843;52.020;5.670;2023-06-19T04:27:15;100798.66;;;22.80;53.45
69624;BME280;56843;52.020;5.670;2023-06-19T04:28:46;100803.34;;;22.79;53.72
69624;BME280;56843;52.020;5.670;2023-06-19T04:30:16;100807.25;;;22.78;53.68
69624;BME280;56843;52.020;5.670;2023-06-19T04:31:46;100815.41;;;22.78;53.24
69624;BME280;56843;52.020;5.670;2023-06-19T04:33:17;100822.06;;;22.77;53.73
69624;BME280;56843;52.020;5.670;2023-06-19T04:34:51;100814.28;;;22.76;53.74
69624;BME280;56843;52.020;5.670;2023-06-19T04:36:22;100821.28;;;22.77;53.52
69624;BME280;56843;52.020;5.670;2023-06-19T04:37:53;100825.53;;;22.78;53.69
69624;BME280;56843;52.020;5.670;2023-06-19T04:39:24;100830.97;;;22.78;53.87
69624;BME280;56843;52.020;5.670;2023-06-19T04:40:54;100832.94;;;22.77;53.89
69624;BME280;56843;52.020;5.670;2023-06-19T04:42:27;100829.44;;;22.77;54.21
69624;BME280;56843;52.020;5.670;2023-06-19T04:43:58;100837.63;;;22.77;53.97
69624;BME280;56843;52.020;5.670;2023-06-19T04:45:28;100832.16;;;22.77;53.92
69624;BME280;56843;52.020;5.670;2023-06-19T04:46:59;100821.66;;;22.75;53.93
69624;BME280;56843;52.020;5.670;2023-06-19T04:48:33;100829.81;;;22.75;54.23
69624;BME280;56843;52.020;5.670;2023-06-19T04:50:07;100833.75;;;22.74;54.41
69624;BME280;56843;52.020;5.670;2023-06-19T04:51:37;100845.03;;;22.73;54.55
69624;BME280;56843;52.020;5.670;2023-06-19T04:53:08;100841.53;;;22.72;54.38
69624;BME280;56843;52.020;5.670;2023-06-19T04:54:38;100837.63;;;22.73;54.75
69624;BME280;56843;52.020;5.670;2023-06-19T04:56:09;100845.03;;;22.73;54.88
69624;BME280;56843;52.020;5.670;2023-06-19T04:57:39;100839.97;;;22.71;55.09
69624;BME280;56843;52.020;5.670;2023-06-19T04:59:10;100832.59;;;22.72;55.13
69624;BME280;56843;52.020;5.670;2023-06-19T05:00:40;100833.75;;;22.71;55.48
69624;BME280;56843;52.020;5.670;2023-06-19T05:02:11;100836.88;;;22.73;55.30
69624;BME280;56843;52.020;5.670;2023-06-19T05:03:43;100834.91;;;22.73;55.36
69624;BME280;56843;52.020;5.670;2023-06-19T05:05:14;100842.31;;;22.73;55.32
69624;BME280;56843;52.020;5.670;2023-06-19T05:06:44;100841.53;;;22.72;55.61
69624;BME280;56843;52.020;5.670;2023-06-19T05:08:15;100841.94;;;22.71;55.75
69624;BME280;56843;52.020;5.670;2023-06-19T05:09:45;100845.84;;;22.70;55.80
69624;BME280;56843;52.020;5.670;2023-06-19T05:11:16;100841.19;;;22.66;56.01
69624;BME280;56843;52.020;5.670;2023-06-19T05:12:46;100845.91;;;22.62;55.90
69624;BME280;56843;52.020;5.670;2023-06-19T05:14:17;100852.91;;;22.63;55.75
69624;BME280;56843;52.020;5.670;2023-06-19T05:15:47;100851.34;;;22.62;56.31
69624;BME280;56843;52.020;5.670;2023-06-19T05:17:18;100852.13;;;22.59;56.29
69624;BME280;56843;52.020;5.670;2023-06-19T05:18:49;100844.78;;;22.56;56.62
69624;BME280;56843;52.020;5.670;2023-06-19T05:21:50;100860.72;;;22.58;56.24
69624;BME280;56843;52.020;5.670;2023-06-19T05:23:20;100855.28;;;22.58;56.47
69624;BME280;56843;52.020;5.670;2023-06-19T05:24:51;100856.78;;;22.62;56.49
69624;BME280;56843;52.020;5.670;2023-06-19T05:26:21;100865.31;;;22.64;56.41
69624;BME280;56843;52.020;5.670;2023-06-19T05:27:52;100861.44;;;22.65;56.34
69624;BME280;56843;52.020;5.670;2023-06-19T05:29:23;100861.81;;;22.67;56.38
69624;BME280;56843;52.020;5.670;2023-06-19T05:30:54;100864.91;;;22.70;56.13
69624;BME280;56843;52.020;5.670;2023-06-19T05:32:24;100865.28;;;22.72;56.26
69624;BME280;56843;52.020;5.670;2023-06-19T05:33:54;100867.56;;;22.73;56.00
69624;BME280;56843;52.020;5.670;2023-06-19T05:35:25;100869.91;;;22.75;56.16
69624;BME280;56843;52.020;5.670;2023-06-19T05:36:56;100860.56;;;22.76;56.40
69624;BME280;56843;52.020;5.670;2023-06-19T05:38:27;100859.75;;;22.79;56.20
69624;BME280;56843;52.020;5.670;2023-06-19T05:40:00;100866.72;;;22.80;56.33
69624;BME280;56843;52.020;5.670;2023-06-19T05:41:30;100862.84;;;22.81;55.81
69624;BME280;56843;52.020;5.670;2023-06-19T05:43:01;100864.38;;;22.85;55.51
69624;BME280;56843;52.020;5.670;2023-06-19T05:44:31;100863.47;;;22.95;55.30
69624;BME280;56843;52.020;5.670;2023-06-19T05:46:02;100866.09;;;23.06;54.91
69624;BME280;56843;52.020;5.670;2023-06-19T05:47:33;100867.16;;;23.15;54.66
69624;BME280;56843;52.020;5.670;2023-06-19T05:49:03;100881.47;;;23.26;54.31
69624;BME280;56843;52.020;5.670;2023-06-19T05:50:33;100878.25;;;23.35;54.26
69624;BME280;56843;52.020;5.670;2023-06-19T05:52:04;100877.00;;;23.43;53.81
69624;BME280;56843;52.020;5.670;2023-06-19T05:53:35;100869.91;;;23.49;53.76
69624;BME280;56843;52.020;5.670;2023-06-19T05:55:06;100883.47;;;23.53;53.57
69624;BME280;56843;52.020;5.670;2023-06-19T05:56:36;100881.53;;;23.53;53.38
69624;BME280;56843;52.020;5.670;2023-06-19T05:58:06;100883.81;;;23.58;53.37
69624;BME280;56843;52.020;5.670;2023-06-19T05:59:37;100878.31;;;23.62;53.15
69624;BME280;56843;52.020;5.670;2023-06-19T06:01:08;100880.59;;;23.67;53.00
69624;BME280;56843;52.020;5.670;2023-06-19T06:02:38;100886.75;;;23.71;52.68
69624;BME280;56843;52.020;5.670;2023-06-19T06:04:09;100882.03;;;23.75;52.59
69624;BME280;56843;52.020;5.670;2023-06-19T06:05:39;100886.25;;;23.79;52.40
69624;BME280;56843;52.020;5.670;2023-06-19T06:07:10;100893.22;;;23.84;52.21
69624;BME280;56843;52.020;5.670;2023-06-19T06:08:41;100887.72;;;23.87;51.61
69624;BME280;56843;52.020;5.670;2023-06-19T06:10:11;100898.19;;;23.92;51.35
69624;BME280;56843;52.020;5.670;2023-06-19T06:11:42;100902.41;;;23.97;51.35
69624;BME280;56843;52.020;5.670;2023-06-19T06:13:12;100904.31;;;24.00;50.88
69624;BME280;56843;52.020;5.670;2023-06-19T06:14:43;100902.31;;;24.04;50.70
69624;BME280;56843;52.020;5.670;2023-06-19T06:16:13;100907.75;;;24.07;50.27
69624;BME280;56843;52.020;5.670;2023-06-19T06:17:44;100907.25;;;24.13;50.35
69624;BME280;56843;52.020;5.670;2023-06-19T06:19:14;100905.66;;;24.15;50.16
69624;BME280;56843;52.020;5.670;2023-06-19T06:20:45;100910.66;;;24.20;50.05
69624;BME280;56843;52.020;5.670;2023-06-19T06:22:15;100910.59;;;24.24;49.66
69624;BME280;56843;52.020;5.670;2023-06-19T06:23:46;100915.25;;;24.27;49.80
69624;BME280;56843;52.020;5.670;2023-06-19T06:25:17;100913.66;;;24.29;49.76
69624;BME280;56843;52.020;5.670;2023-06-19T06:26:48;100921.00;;;24.32;49.64
69624;BME280;56843;52.020;5.670;2023-06-19T06:28:18;100932.66;;;24.36;49.31
69624;BME280;56843;52.020;5.670;2023-06-19T06:29:49;100923.63;;;24.39;49.30
69624;BME280;56843;52.020;5.670;2023-06-19T06:31:19;100936.47;;;24.42;49.42
69624;BME280;56843;52.020;5.670;2023-06-19T06:32:50;100921.22;;;24.45;49.15
69624;BME280;56843;52.020;5.670;2023-06-19T06:34:21;100928.56;;;24.48;48.83
69624;BME280;56843;52.020;5.670;2023-06-19T06:35:54;100924.22;;;24.50;48.75
69624;BME280;56843;52.020;5.670;2023-06-19T06:37:25;100924.59;;;24.52;48.75
69624;BME280;56843;52.020;5.670;2023-06-19T06:38:56;100926.94;;;24.54;48.69
69624;BME280;56843;52.020;5.670;2023-06-19T06:40:26;100937.00;;;24.57;48.33
69624;BME280;56843;52.020;5.670;2023-06-19T06:41:57;100930.38;;;24.58;48.66
69624;BME280;56843;52.020;5.670;2023-06-19T06:43:27;100933.47;;;24.60;48.57
69624;BME280;56843;52.020;5.670;2023-06-19T06:44:58;100929.16;;;24.62;48.49
69624;BME280;56843;52.020;5.670;2023-06-19T06:46:28;100935.75;;;24.65;48.38
69624;BME280;56843;52.020;5.670;2023-06-19T06:47:59;100936.09;;;24.67;48.46
69624;BME280;56843;52.020;5.670;2023-06-19T06:49:29;100942.34;;;24.67;48.22
69624;BME280;56843;52.020;5.670;2023-06-19T06:51:00;100933.72;;;24.69;48.04
69624;BME280;56843;52.020;5.670;2023-06-19T06:52:31;100945.00;;;24.71;47.84
69624;BME280;56843;52.020;5.670;2023-06-19T06:54:02;100946.16;;;24.73;47.85
69624;BME280;56843;52.020;5.670;2023-06-19T06:55:32;100943.00;;;24.75;47.65
69624;BME280;56843;52.020;5.670;2023-06-19T06:57:03;100951.19;;;24.75;47.54
69624;BME280;56843;52.020;5.670;2023-06-19T06:58:35;100951.53;;;24.77;47.57
69624;BME280;56843;52.020;5.670;2023-06-19T07:00:06;100961.66;;;24.80;47.54
69624;BME280;56843;52.020;5.670;2023-06-19T07:01:40;100954.22;;;24.80;47.46
69624;BME280;56843;52.020;5.670;2023-06-19T07:03:10;100957.72;;;24.81;47.65
69624;BME280;56843;52.020;5.670;2023-06-19T07:04:41;100963.91;;;24.85;47.15
69624;BME280;56843;52.020;5.670;2023-06-19T07:06:11;100964.25;;;24.87;47.32
69624;BME280;56843;52.020;5.670;2023-06-19T07:07:42;100968.53;;;24.88;47.26
69624;BME280;56843;52.020;5.670;2023-06-19T07:09:12;100967.72;;;24.91;47.08
69624;BME280;56843;52.020;5.670;2023-06-19T07:10:43;100975.47;;;24.93;47.01
69624;BME280;56843;52.020;5.670;2023-06-19T07:12:13;100979.34;;;24.95;47.12
69624;BME280;56843;52.020;5.670;2023-06-19T07:13:44;100982.44;;;24.97;47.04
69624;BME280;56843;52.020;5.670;2023-06-19T07:15:14;100971.50;;;24.97;46.93
69624;BME280;56843;52.020;5.670;2023-06-19T07:16:45;100983.13;;;25.01;47.02
69624;BME280;56843;52.020;5.670;2023-06-19T07:18:15;100985.03;;;25.04;47.02
69624;BME280;56843;52.020;5.670;2023-06-19T07:19:46;100987.72;;;25.08;46.79
69624;BME280;56843;52.020;5.670;2023-06-19T07:21:16;100992.34;;;25.11;46.77
69624;BME280;56843;52.020;5.670;2023-06-19T07:22:47;100989.19;;;25.12;46.71
69624;BME280;56843;52.020;5.670;2023-06-19T07:24:18;100991.53;;;25.14;46.77
69624;BME280;56843;52.020;5.670;2023-06-19T07:25:48;100995.38;;;25.16;46.51
69624;BME280;56843;52.020;5.670;2023-06-19T07:27:18;101002.38;;;25.17;46.59
69624;BME280;56843;52.020;5.670;2023-06-19T07:28:49;101002.75;;;25.19;46.51
69624;BME280;56843;52.020;5.670;2023-06-19T07:30:20;101008.97;;;25.20;46.42
69624;BME280;56843;52.020;5.670;2023-06-19T07:31:50;101002.31;;;25.21;46.40
69624;BME280;56843;52.020;5.670;2023-06-19T07:33:20;101005.41;;;25.23;46.36
69624;BME280;56843;52.020;5.670;2023-06-19T07:34:53;101012.03;;;25.25;46.30
69624;BME280;56843;52.020;5.670;2023-06-19T07:36:23;101015.13;;;25.27;46.26
69624;BME280;56843;52.020;5.670;2023-06-19T07:37:54;101012.75;;;25.29;46.03
69624;BME280;56843;52.020;5.670;2023-06-19T07:39:24;101017.03;;;25.30;46.26
69624;BME280;56843;52.020;5.670;2023-06-19T07:40:54;101009.25;;;25.29;45.96
69624;BME280;56843;52.020;5.670;2023-06-19T07:42:26;101022.84;;;25.32;46.03
69624;BME280;56843;52.020;5.670;2023-06-19T07:43:56;101023.19;;;25.34;46.03
69624;BME280;56843;52.020;5.670;2023-06-19T07:45:27;101017.72;;;25.34;46.12
69624;BME280;56843;52.020;5.670;2023-06-19T07:46:57;101025.53;;;25.36;46.27
69624;BME280;56843;52.020;5.670;2023-06-19T07:48:28;101032.53;;;25.37;45.89
69624;BME280;56843;52.020;5.670;2023-06-19T07:49:58;101028.63;;;25.38;45.96
69624;BME280;56843;52.020;5.670;2023-06-19T07:51:29;101027.00;;;25.40;45.74
69624;BME280;56843;52.020;5.670;2023-06-19T07:52:59;101038.69;;;25.41;45.59
69624;BME280;56843;52.020;5.670;2023-06-19T07:54:30;101035.56;;;25.42;45.84
69624;BME280;56843;52.020;5.670;2023-06-19T07:56:00;101042.56;;;25.43;45.74
69624;BME280;56843;52.020;5.670;2023-06-19T07:57:31;101039.00;;;25.46;45.79
69624;BME280;56843;52.020;5.670;2023-06-19T07:59:01;101044.81;;;25.48;45.49
69624;BME280;56843;52.020;5.670;2023-06-19T08:00:32;101051.81;;;25.49;45.44
69624;BME280;56843;52.020;5.670;2023-06-19T08:02:02;101052.97;;;25.52;45.60